createdAt,value
2023-03-12T00:00:54.972Z,0.9
2023-03-12T00:02:56.347Z,0.9
2023-03-12T00:04:57.640Z,0.9
2023-03-12T00:06:58.977Z,0.9
2023-03-12T00:11:01.557Z,1
2023-03-12T00:13:02.904Z,1
2023-03-12T00:15:09.163Z,1.3
2023-03-12T00:17:10.373Z,1.4
2023-03-12T00:19:11.588Z,1.5
2023-03-12T00:21:12.878Z,1.4
2023-03-12T00:23:14.211Z,1.4
2023-03-12T00:25:15.441Z,1.5
2023-03-12T00:27:16.703Z,1.4
2023-03-12T00:29:21.319Z,1.4
2023-03-12T00:31:22.612Z,1.4
2023-03-12T00:33:23.810Z,1.4
2023-03-12T00:35:46.859Z,1.4
2023-03-12T00:37:48.188Z,1.3
2023-03-12T00:39:49.560Z,1.4
2023-03-12T00:41:54.192Z,1.4
2023-03-12T00:43:55.517Z,1.4
2023-03-12T00:45:56.828Z,1.4
2023-03-12T00:47:58.138Z,1.4
2023-03-12T00:49:59.409Z,1.4
2023-03-12T00:52:00.775Z,1.4
2023-03-12T00:54:02.126Z,1.3
2023-03-12T00:56:07.554Z,1.3
2023-03-12T00:58:08.816Z,1.2
2023-03-12T01:04:12.603Z,1.3
2023-03-12T01:06:13.835Z,1.4
2023-03-12T01:08:15.082Z,1.4
2023-03-12T01:10:19.733Z,1.4
2023-03-12T01:12:21.061Z,1.4
2023-03-12T01:14:22.425Z,1.4
2023-03-12T01:16:23.849Z,1.4
2023-03-12T01:18:25.030Z,1.5
2023-03-12T01:20:26.287Z,1.5
2023-03-12T01:22:27.569Z,1.5
2023-03-12T01:24:32.210Z,1.6
2023-03-12T01:29:37.104Z,1.6
2023-03-12T01:31:38.514Z,1.5
2023-03-12T01:33:39.607Z,1.5
2023-03-12T01:35:41.040Z,1.6
2023-03-12T01:37:45.604Z,1.6
2023-03-12T01:39:46.851Z,1.5
2023-03-12T01:41:48.148Z,1.5
2023-03-12T01:43:49.518Z,1.5
2023-03-12T01:45:50.778Z,1.5
2023-03-12T01:47:52.160Z,1.5
2023-03-12T01:49:53.501Z,1.4
2023-03-12T01:51:58.276Z,1.4
2023-03-12T01:53:59.628Z,1.4
2023-03-12T01:56:00.875Z,1.3
2023-03-12T01:58:02.203Z,1.3
2023-03-12T02:06:10.859Z,1.5
2023-03-12T02:08:12.216Z,1.5
2023-03-12T02:10:13.582Z,1.5
2023-03-12T02:12:14.851Z,1.5
2023-03-12T02:16:17.535Z,1.5
2023-03-12T02:18:18.849Z,1.5
2023-03-12T02:20:23.358Z,1.5
2023-03-12T02:24:25.898Z,1.5
2023-03-12T02:25:28.196Z,1.5
2023-03-12T02:27:29.497Z,1.5
2023-03-12T02:29:30.822Z,1.3
2023-03-12T02:31:32.170Z,1.4
2023-03-12T02:33:36.771Z,1.4
2023-03-12T02:35:38.222Z,1.4
2023-03-12T02:37:39.408Z,1.4
2023-03-12T02:39:40.682Z,1.4
2023-03-12T02:41:42.048Z,1.4
2023-03-12T02:43:43.395Z,1.4
2023-03-12T02:45:44.708Z,1.4
2023-03-12T02:47:49.337Z,1.4
2023-03-12T02:49:50.626Z,1.3
2023-03-12T02:51:51.850Z,1.3
2023-03-12T02:53:53.141Z,1.3
2023-03-12T02:57:55.872Z,1.3
2023-03-12T02:59:57.204Z,1.3
2023-03-12T03:02:01.911Z,1.2
2023-03-12T03:04:03.334Z,1.2
2023-03-12T03:06:04.494Z,1.2
2023-03-12T03:08:05.766Z,1.1
2023-03-12T03:16:14.157Z,1.2
2023-03-12T03:18:15.451Z,1.3
2023-03-12T03:20:16.739Z,1.5
2023-03-12T03:21:19.093Z,1.6
2023-03-12T03:23:20.437Z,1.6
2023-03-12T03:25:21.793Z,1.7
2023-03-12T03:27:23.065Z,1.7
2023-03-12T03:29:27.625Z,1.5
2023-03-12T03:31:28.978Z,1.5
2023-03-12T03:33:30.260Z,1.5
2023-03-12T03:35:31.524Z,1.5
2023-03-12T03:37:32.784Z,1.5
2023-03-12T03:39:34.093Z,1.6
2023-03-12T03:43:39.905Z,1.6
2023-03-12T03:45:41.168Z,1.5
2023-03-12T03:47:42.447Z,1.5
2023-03-12T03:49:43.711Z,1.6
2023-03-12T03:51:45.009Z,1.7
2023-03-12T03:53:46.370Z,1.6
2023-03-12T03:55:47.748Z,1.6
2023-03-12T03:57:52.373Z,1.5
2023-03-12T03:59:53.738Z,1.5
2023-03-12T04:01:55.083Z,1.5
2023-03-12T04:03:56.376Z,1.4
2023-03-12T04:05:57.743Z,1.3
2023-03-12T04:07:59.016Z,1.2
2023-03-12T04:10:00.275Z,1.1
2023-03-12T04:12:04.953Z,1.2
2023-03-12T04:18:30.434Z,1.3
2023-03-12T04:20:31.690Z,1.3
2023-03-12T04:22:32.965Z,1.2
2023-03-12T04:24:37.609Z,1.2
2023-03-12T04:26:38.963Z,1.2
2023-03-12T04:28:40.234Z,1.4
2023-03-12T04:30:41.576Z,1.4
2023-03-12T04:32:43.028Z,1.3
2023-03-12T04:34:44.189Z,1.3
2023-03-12T04:36:45.440Z,1.3
2023-03-12T04:38:50.090Z,1.5
2023-03-12T04:40:51.475Z,1.5
2023-03-12T04:42:52.687Z,1.5
2023-03-12T04:44:53.909Z,1.5
2023-03-12T04:46:55.284Z,1.6
2023-03-12T04:48:56.447Z,1.6
2023-03-12T04:50:57.722Z,1.6
2023-03-12T04:53:02.594Z,1.6
2023-03-12T04:55:03.823Z,1.6
2023-03-12T04:59:06.406Z,1.7
2023-03-12T05:01:07.689Z,1.7
2023-03-12T05:03:09.044Z,1.7
2023-03-12T05:05:10.300Z,1.7
2023-03-12T05:07:14.849Z,1.8
2023-03-12T05:09:16.157Z,1.8
2023-03-12T05:11:17.419Z,1.8
2023-03-12T05:16:22.365Z,1.7
2023-03-12T05:18:23.550Z,1.7
2023-03-12T05:20:28.188Z,1.6
2023-03-12T05:26:32.101Z,1.4
2023-03-12T05:28:33.462Z,1.4
2023-03-12T05:30:34.831Z,1.3
2023-03-12T05:32:36.180Z,1.3
2023-03-12T05:36:42.012Z,1.1
2023-03-12T05:38:43.295Z,1.1
2023-03-12T05:40:44.557Z,0.9
2023-03-12T05:42:45.920Z,0.9
2023-03-12T05:44:47.258Z,0.8
2023-03-12T05:48:53.196Z,0.8
2023-03-12T05:50:54.544Z,0.8
2023-03-12T05:52:55.907Z,0.7
2023-03-12T05:54:57.169Z,0.8
2023-03-12T05:56:58.392Z,0.7
2023-03-12T05:58:59.755Z,0.8
2023-03-12T06:01:01.113Z,0.8
2023-03-12T06:03:05.835Z,0.8
2023-03-12T06:05:08.717Z,0.8
2023-03-12T06:07:09.902Z,0.8
2023-03-12T06:08:12.212Z,0.8
2023-03-12T06:10:13.540Z,0.8
2023-03-12T06:12:14.893Z,0.8
2023-03-12T06:18:22.016Z,0.9
2023-03-12T06:20:23.268Z,0.9
2023-03-12T06:24:25.862Z,0.9
2023-03-12T06:26:27.219Z,0.9
2023-03-12T06:30:33.362Z,1
2023-03-12T06:32:34.704Z,1
2023-03-12T06:34:36.001Z,1.1
2023-03-12T06:38:38.693Z,1.1
2023-03-12T06:40:39.942Z,1.2
2023-03-12T06:42:41.348Z,1.1
2023-03-12T06:44:45.888Z,1.2
2023-03-12T06:46:47.233Z,1.2
2023-03-12T06:48:48.405Z,1.2
2023-03-12T06:50:49.765Z,1.2
2023-03-12T06:52:51.105Z,1.2
2023-03-12T06:54:52.415Z,1.3
2023-03-12T06:56:53.714Z,1.3
2023-03-12T06:58:58.376Z,1.5
2023-03-12T07:00:59.724Z,1.5
2023-03-12T07:03:00.962Z,1.6
2023-03-12T07:04:03.288Z,1.6
2023-03-12T07:06:04.516Z,1.7
2023-03-12T07:08:05.790Z,1.7
2023-03-12T07:10:07.062Z,1.8
2023-03-12T07:12:11.616Z,1.8
2023-03-12T07:14:12.910Z,1.8
2023-03-12T07:16:14.292Z,1.8
2023-03-12T07:18:15.491Z,1.8
2023-03-12T07:20:16.838Z,1.9
2023-03-12T07:22:18.104Z,2
2023-03-12T07:26:24.064Z,2.1
2023-03-12T07:28:25.322Z,2.2
2023-03-12T07:30:26.617Z,2.2
2023-03-12T07:34:29.542Z,2.3
2023-03-12T07:38:31.919Z,2.4
2023-03-12T07:40:36.524Z,2.3
2023-03-12T07:42:37.815Z,2.4
2023-03-12T07:44:39.051Z,2.4
2023-03-12T07:46:40.402Z,2.4
2023-03-12T07:48:44.128Z,2.3
2023-03-12T07:50:42.924Z,2.3
2023-03-12T07:52:44.487Z,2.3
2023-03-12T07:54:49.140Z,2.3
2023-03-12T07:56:50.735Z,2.3
2023-03-12T07:58:51.595Z,2.3
2023-03-12T08:01:14.602Z,2.3
2023-03-12T08:03:16.002Z,2.3
2023-03-12T08:05:17.138Z,2.3
2023-03-12T08:07:21.873Z,2.2
2023-03-12T08:09:23.053Z,2.3
2023-03-12T08:11:24.323Z,2.3
2023-03-12T08:13:25.849Z,2.3
2023-03-12T08:21:34.231Z,2.3
2023-03-12T08:23:35.616Z,2.3
2023-03-12T08:33:42.160Z,2.3
2023-03-12T08:35:46.825Z,2.4
2023-03-12T08:43:52.044Z,2.6
2023-03-12T08:49:59.208Z,2.8
2023-03-12T08:52:00.569Z,2.8
2023-03-12T08:54:01.918Z,2.8
2023-03-12T08:55:04.216Z,3
2023-03-12T08:57:06.050Z,3
2023-03-12T08:59:07.338Z,3
2023-03-12T09:01:08.636Z,3.1
2023-03-12T09:03:13.292Z,3.3
2023-03-12T09:05:14.550Z,3.2
2023-03-12T09:07:15.872Z,3.2
2023-03-12T09:09:17.230Z,3.2
2023-03-12T09:11:18.528Z,3.2
2023-03-12T09:13:19.817Z,3.3
2023-03-12T09:15:21.167Z,3.3
2023-03-12T09:17:25.753Z,3.3
2023-03-12T09:19:27.061Z,3.3
2023-03-12T09:21:28.363Z,3.4
2023-03-12T09:41:44.892Z,4
2023-03-12T09:43:46.202Z,4
2023-03-12T09:50:55.891Z,4.6
2023-03-12T09:52:57.197Z,4.6
2023-03-12T09:59:04.502Z,4.9
2023-03-12T10:01:05.823Z,4.9
2023-03-12T10:11:12.490Z,5.4
2023-03-12T10:13:17.113Z,5.2
2023-03-12T10:15:18.465Z,5.2
2023-03-12T10:17:19.798Z,5.1
2023-03-12T10:19:21.133Z,5.2
2023-03-12T10:21:22.502Z,5.2
2023-03-12T10:23:23.836Z,5.2
2023-03-12T10:25:25.208Z,5.2
2023-03-12T10:27:29.820Z,5.4
2023-03-12T10:29:31.199Z,5.3
2023-03-12T10:31:32.522Z,5.4
2023-03-12T10:33:33.853Z,5.4
2023-03-12T10:35:35.215Z,5.4
2023-03-12T10:37:36.552Z,5.5
2023-03-12T10:39:37.970Z,5.5
2023-03-12T10:43:43.919Z,5.4
2023-03-12T10:45:45.294Z,5.4
2023-03-12T10:46:47.684Z,5.5
2023-03-12T10:48:48.953Z,5.6
2023-03-12T10:50:50.292Z,5.6
2023-03-12T10:52:51.622Z,5.6
2023-03-12T10:54:56.251Z,5.5
2023-03-12T10:56:57.623Z,5.6
2023-03-12T10:58:58.958Z,5.7
2023-03-12T11:01:00.313Z,5.8
2023-03-12T11:03:01.640Z,5.8
2023-03-12T11:05:03.018Z,5.8
2023-03-12T11:07:04.333Z,6
2023-03-12T11:09:17.127Z,6
2023-03-12T11:11:10.345Z,6
2023-03-12T11:13:11.695Z,6
2023-03-12T11:15:13.039Z,6.1
2023-03-12T11:17:14.405Z,6.3
2023-03-12T11:19:15.744Z,6.5
2023-03-12T11:21:17.112Z,6.4
2023-03-12T11:23:21.787Z,6.7
2023-03-12T11:27:24.478Z,6.8
2023-03-12T11:29:25.928Z,6.8
2023-03-12T11:31:27.195Z,6.9
2023-03-12T11:33:28.571Z,7
2023-03-12T11:35:29.923Z,7.2
2023-03-12T11:37:34.606Z,7.3
2023-03-12T11:39:35.981Z,7.4
2023-03-12T11:43:59.872Z,7.5
2023-03-12T11:46:01.226Z,7.6
2023-03-12T11:50:07.225Z,7.7
2023-03-12T11:52:08.575Z,7.6
2023-03-12T11:56:12.826Z,7.8
2023-03-12T11:58:14.216Z,7.9
2023-03-12T12:00:15.559Z,8
2023-03-12T12:02:16.973Z,8
2023-03-12T12:04:21.602Z,8.1
2023-03-12T12:08:24.314Z,8.2
2023-03-12T12:10:25.711Z,8.2
2023-03-12T12:12:27.054Z,8.2
2023-03-12T12:14:28.419Z,8.4
2023-03-12T12:16:29.899Z,8.6
2023-03-12T12:18:34.438Z,8.6
2023-03-12T12:20:35.827Z,8.4
2023-03-12T12:22:37.171Z,8.5
2023-03-12T12:24:38.531Z,8.5
2023-03-12T12:26:39.912Z,8.5
2023-03-12T12:28:41.300Z,8.5
2023-03-12T12:30:42.679Z,8.5
2023-03-12T12:32:47.397Z,8.4
2023-03-12T12:34:48.732Z,8.5
2023-03-12T12:36:50.099Z,8.6
2023-03-12T12:39:53.772Z,8.7
2023-03-12T12:43:56.507Z,8.5
2023-03-12T12:46:01.254Z,8.5
2023-03-12T12:48:02.533Z,8.5
2023-03-12T12:50:03.899Z,8.6
2023-03-12T12:52:05.257Z,8.5
2023-03-12T12:54:06.648Z,8.6
2023-03-12T13:02:15.422Z,8.8
2023-03-12T13:06:18.119Z,8.7
2023-03-12T13:08:19.499Z,8.8
2023-03-12T13:10:20.886Z,8.7
2023-03-12T13:12:22.265Z,8.7
2023-03-12T13:14:26.932Z,8.7
2023-03-12T13:16:28.349Z,8.7
2023-03-12T13:18:29.666Z,8.8
2023-03-12T13:20:31.022Z,8.9
2023-03-12T13:28:39.777Z,8.8
2023-03-12T13:30:41.121Z,8.9
2023-03-12T13:32:42.528Z,8.7
2023-03-12T13:33:44.866Z,8.7
2023-03-12T13:35:46.293Z,8.8
2023-03-12T13:39:48.931Z,9.3
2023-03-12T13:41:53.595Z,9.3
2023-03-12T13:43:54.974Z,9.2
2023-03-12T13:45:56.354Z,9.1
2023-03-12T13:47:57.714Z,9.1
2023-03-12T13:49:59.067Z,9.1
2023-03-12T13:52:00.463Z,9.1
2023-03-12T13:54:01.847Z,9.1
2023-03-12T13:56:06.503Z,9.2
2023-03-12T13:58:07.908Z,9.3
2023-03-12T14:00:09.271Z,9.4
2023-03-12T14:02:10.592Z,9.5
2023-03-12T14:04:11.991Z,9.6
2023-03-12T14:06:13.364Z,9.4
2023-03-12T14:08:14.747Z,9.4
2023-03-12T14:10:19.463Z,9.5
2023-03-12T14:12:20.880Z,9.4
2023-03-12T14:14:22.156Z,9.5
2023-03-12T14:16:23.596Z,9.5
2023-03-12T14:18:24.959Z,9.7
2023-03-12T14:20:26.303Z,9.9
2023-03-12T14:22:27.680Z,10.1
2023-03-12T14:29:37.396Z,10.1
2023-03-12T14:31:38.834Z,10.3
2023-03-12T14:33:40.139Z,10.3
2023-03-12T14:35:41.560Z,10.8
2023-03-12T14:37:46.224Z,11.8
2023-03-12T14:39:49.828Z,11.5
2023-03-12T14:41:48.946Z,11.4
2023-03-12T14:43:50.334Z,11
2023-03-12T14:45:51.743Z,10.7
2023-03-12T14:47:53.110Z,11.4
2023-03-12T14:49:54.472Z,11.8
2023-03-12T14:54:00.546Z,11.5
2023-03-12T14:56:01.941Z,11.6
2023-03-12T14:58:03.324Z,11.3
2023-03-12T15:00:04.716Z,11.1
2023-03-12T15:02:06.186Z,10.9
2023-03-12T15:04:07.468Z,11.1
2023-03-12T15:06:12.116Z,11.1
2023-03-12T15:08:13.482Z,11.1
2023-03-12T15:10:14.851Z,11
2023-03-12T15:12:16.259Z,11
2023-03-12T15:26:50.890Z,11
2023-03-12T15:28:52.250Z,11
2023-03-12T15:30:53.656Z,11
2023-03-12T15:32:58.402Z,11
2023-03-12T15:34:59.930Z,11
2023-03-12T15:37:01.106Z,11
2023-03-12T15:39:02.483Z,11
2023-03-12T15:41:03.884Z,11
2023-03-12T15:43:05.266Z,11.1
2023-03-12T15:45:06.640Z,11.2
2023-03-12T15:47:11.309Z,11.4
2023-03-12T15:59:19.571Z,10.8
2023-03-12T16:01:24.363Z,10.9
2023-03-12T16:05:27.014Z,10.8
2023-03-12T16:07:28.392Z,10.8
2023-03-12T16:09:29.768Z,10.8
2023-03-12T16:11:31.169Z,10.7
2023-03-12T16:13:32.536Z,10.6
2023-03-12T16:15:37.221Z,10.5
2023-03-12T16:17:38.578Z,10.5
2023-03-12T16:19:40.065Z,10.5
2023-03-12T16:20:42.327Z,10.5
2023-03-12T16:22:43.699Z,10.4
2023-03-12T16:24:45.118Z,10.4
2023-03-12T16:28:51.110Z,10.4
2023-03-12T16:30:52.500Z,10.4
2023-03-12T16:32:53.951Z,10.4
2023-03-12T16:34:55.674Z,10.4
2023-03-12T16:36:56.772Z,10.3
2023-03-12T16:38:57.976Z,10.3
2023-03-12T16:43:04.146Z,10.2
2023-03-12T16:45:05.431Z,10.2
2023-03-12T16:51:09.555Z,10.1
2023-03-12T16:53:10.937Z,10.1
2023-03-12T16:55:12.325Z,10
2023-03-12T16:57:16.968Z,10
2023-03-12T17:01:19.744Z,10
2023-03-12T17:03:21.092Z,10
2023-03-12T17:07:23.872Z,10
2023-03-12T17:11:29.892Z,9.8
2023-03-12T17:13:31.268Z,9.9
2023-03-12T17:15:32.646Z,9.9
2023-03-12T17:16:35.032Z,9.9
2023-03-12T17:18:39.045Z,9.9
2023-03-12T17:20:37.697Z,9.9
2023-03-12T17:28:46.508Z,9.8
2023-03-12T17:34:50.647Z,9.8
2023-03-12T17:36:51.999Z,9.7
2023-03-12T17:42:59.420Z,9.8
2023-03-12T17:45:02.380Z,9.8
2023-03-12T17:53:11.171Z,9.8
2023-03-12T17:55:12.556Z,9.7
2023-03-12T17:57:13.914Z,9.7
2023-03-12T18:03:18.133Z,9.8
2023-03-12T18:05:19.429Z,9.8
2023-03-12T18:07:24.093Z,9.9
2023-03-12T18:09:25.478Z,9.9
2023-03-12T18:11:26.847Z,9.9
2023-03-12T18:12:29.193Z,9.8
2023-03-12T18:14:30.557Z,9.8
2023-03-12T18:16:31.959Z,9.8
2023-03-12T18:18:33.337Z,9.8
2023-03-12T18:24:40.775Z,9.7
2023-03-12T18:28:44.567Z,9.7
2023-03-12T18:30:45.941Z,9.7
2023-03-12T18:32:47.359Z,9.7
2023-03-12T18:34:51.947Z,9.7
2023-03-12T18:36:53.311Z,9.7
2023-03-12T18:38:54.663Z,9.6
2023-03-12T18:40:56.028Z,9.7
2023-03-12T18:42:57.382Z,9.7
2023-03-12T18:47:00.272Z,9.7
2023-03-12T18:49:04.841Z,9.7
2023-03-12T18:51:06.205Z,9.7
2023-03-12T18:53:07.583Z,9.7
2023-03-12T18:55:08.921Z,9.7
2023-03-12T18:57:10.310Z,9.8
2023-03-12T18:59:11.693Z,9.8
2023-03-12T19:01:13.061Z,9.9
2023-03-12T19:07:20.503Z,9.7
2023-03-12T19:09:49.258Z,9.8
2023-03-12T19:11:50.666Z,9.8
2023-03-12T19:13:52.014Z,9.8
2023-03-12T19:17:58.053Z,9.1
2023-03-12T19:19:59.426Z,9
2023-03-12T19:22:00.830Z,8.8
2023-03-12T19:24:02.231Z,9
2023-03-12T19:26:03.606Z,9.2
2023-03-12T19:28:04.995Z,9.3
2023-03-12T19:30:09.656Z,9.4
2023-03-12T19:32:11.028Z,9.3
2023-03-12T19:34:12.412Z,9.1
2023-03-12T19:36:13.800Z,8.9
2023-03-12T19:38:15.192Z,8.7
2023-03-12T19:40:16.537Z,8.7
2023-03-12T19:42:18.146Z,8.8
2023-03-12T19:44:22.605Z,8.9
2023-03-12T19:46:23.956Z,8.9
2023-03-12T19:48:25.462Z,9
2023-03-12T19:50:26.676Z,9.2
2023-03-12T19:54:29.443Z,9.2
2023-03-12T19:56:30.777Z,9.1
2023-03-12T19:58:35.458Z,9.1
2023-03-12T20:00:36.894Z,9.1
2023-03-12T20:02:38.325Z,9.2
2023-03-12T20:03:42.304Z,9.1
2023-03-12T20:05:41.900Z,9.1
2023-03-12T20:07:43.254Z,9.1
2023-03-12T20:09:44.661Z,9
2023-03-12T20:13:50.722Z,9
2023-03-12T20:15:52.053Z,9
2023-03-12T20:17:53.406Z,9
2023-03-12T20:19:54.767Z,9
2023-03-12T20:21:56.134Z,8.9
2023-03-12T20:26:02.173Z,8.9
2023-03-12T20:28:03.620Z,8.9
2023-03-12T20:30:04.918Z,8.9
2023-03-12T20:42:16.474Z,9.1
2023-03-12T20:46:19.258Z,9.1
2023-03-12T20:48:20.611Z,9.2
2023-03-12T20:50:21.996Z,9.2
2023-03-12T20:54:28.006Z,9.2
2023-03-12T20:58:30.783Z,9.1
2023-03-12T21:01:34.586Z,9.2
2023-03-12T21:03:35.851Z,9.2
2023-03-12T21:05:37.192Z,9.2
2023-03-12T21:07:41.879Z,9.2
2023-03-12T21:09:43.234Z,9.1
2023-03-12T21:13:46.001Z,9.2
2023-03-12T21:15:47.372Z,9.2
2023-03-12T21:17:48.801Z,9.3
2023-03-12T21:19:50.170Z,9.2
2023-03-12T21:21:54.833Z,9.3
2023-03-12T21:23:56.220Z,9.3
2023-03-12T21:25:57.626Z,9.3
2023-03-12T21:27:58.933Z,9.3
2023-03-12T21:30:00.317Z,9.2
2023-03-12T21:32:01.735Z,9.3
2023-03-12T21:34:03.019Z,9.2
2023-03-12T21:36:07.690Z,9.2
2023-03-12T21:38:09.071Z,9.2
2023-03-12T21:40:10.459Z,9.1
2023-03-12T21:42:11.788Z,9.1
2023-03-12T21:46:14.621Z,9.1
2023-03-12T21:48:15.884Z,9.1
2023-03-12T21:50:20.547Z,9
2023-03-12T21:54:23.272Z,9
2023-03-12T21:55:25.619Z,9
2023-03-12T21:57:26.966Z,9.1
2023-03-12T21:59:28.354Z,9.1
2023-03-12T22:01:29.760Z,9.1
2023-03-12T22:03:34.446Z,9.1
2023-03-12T22:05:35.752Z,9.1
2023-03-12T22:07:37.157Z,9.2
2023-03-12T22:11:39.906Z,9.3
2023-03-12T22:21:50.049Z,9.1
2023-03-12T22:23:51.366Z,9.2
2023-03-12T22:25:52.764Z,9.2
2023-03-12T22:27:54.117Z,9.2
2023-03-12T22:29:55.513Z,9.3
2023-03-12T22:32:00.162Z,9.4
2023-03-12T22:34:01.536Z,9.5
2023-03-12T22:36:02.993Z,9.5
2023-03-12T22:40:05.650Z,9.5
2023-03-12T22:42:07.034Z,9.5
2023-03-12T22:46:13.156Z,9.4
2023-03-12T22:48:14.506Z,9.5
2023-03-12T22:52:44.693Z,9.6
2023-03-12T22:54:46.083Z,9.5
2023-03-12T22:58:52.088Z,9.5
2023-03-12T23:00:53.504Z,9.5
2023-03-12T23:02:54.868Z,9.7
2023-03-12T23:04:56.282Z,9.6
2023-03-12T23:07:12.882Z,9.6
2023-03-12T23:08:59.021Z,9.7
2023-03-12T23:11:00.393Z,9.5
2023-03-12T23:13:05.074Z,9.6
2023-03-12T23:15:06.434Z,9.7
2023-03-12T23:17:07.792Z,9.6
2023-03-12T23:19:09.158Z,9.6
2023-03-12T23:21:10.595Z,9.4
2023-03-12T23:23:11.938Z,9.4
2023-03-12T23:25:13.272Z,9.4
2023-03-12T23:31:20.792Z,9
2023-03-12T23:33:22.071Z,8.9
2023-03-12T23:35:25.110Z,8.8
2023-03-12T23:41:32.440Z,8.7
2023-03-12T23:45:35.242Z,8.7
2023-03-12T23:46:37.532Z,8.7
2023-03-12T23:48:38.914Z,8.7
2023-03-12T23:50:40.280Z,8.7
2023-03-12T23:52:41.699Z,8.6
2023-03-12T23:54:46.351Z,8.6
2023-03-12T23:56:47.698Z,8.6
2023-03-12T23:58:49.131Z,8.6
